sensor_id;sensor_type;location;lat;lon;timestamp;P1;durP1;ratioP1;P2;durP2;ratioP2
12224;SDS011;6175;50.956;11.064;2023-08-30T00:01:09;2.28;;;2.15;;
12224;SDS011;6175;50.956;11.064;2023-08-30T00:03:38;3.08;;;2.35;;
12224;SDS011;6175;50.956;11.064;2023-08-30T00:06:05;2.45;;;2.25;;
12224;SDS011;6175;50.956;11.064;2023-08-30T00:08:33;2.92;;;2.10;;
12224;SDS011;6175;50.956;11.064;2023-08-30T00:11:00;3.00;;;2.38;;
12224;SDS011;6175;50.956;11.064;2023-08-30T00:13:29;2.50;;;2.30;;
12224;SDS011;6175;50.956;11.064;2023-08-30T00:15:56;2.20;;;2.00;;
12224;SDS011;6175;50.956;11.064;2023-08-30T00:18:23;2.10;;;2.00;;
12224;SDS011;6175;50.956;11.064;2023-08-30T00:20:52;2.20;;;2.00;;
12224;SDS011;6175;50.956;11.064;2023-08-30T00:23:19;2.85;;;2.30;;
12224;SDS011;6175;50.956;11.064;2023-08-30T00:25:46;3.28;;;2.10;;
12224;SDS011;6175;50.956;11.064;2023-08-30T00:28:13;2.10;;;1.90;;
12224;SDS011;6175;50.956;11.064;2023-08-30T00:30:41;3.22;;;2.00;;
12224;SDS011;6175;50.956;11.064;2023-08-30T00:33:08;1.92;;;1.73;;
12224;SDS011;6175;50.956;11.064;2023-08-30T00:35:35;2.28;;;2.08;;
12224;SDS011;6175;50.956;11.064;2023-08-30T00:38:04;2.38;;;2.17;;
12224;SDS011;6175;50.956;11.064;2023-08-30T00:40:37;3.03;;;2.20;;
12224;SDS011;6175;50.956;11.064;2023-08-30T00:43:04;2.63;;;2.20;;
12224;SDS011;6175;50.956;11.064;2023-08-30T00:45:32;2.65;;;2.45;;
12224;SDS011;6175;50.956;11.064;2023-08-30T00:47:58;2.60;;;2.40;;
12224;SDS011;6175;50.956;11.064;2023-08-30T00:50:25;2.47;;;2.28;;
12224;SDS011;6175;50.956;11.064;2023-08-30T00:52:52;2.15;;;2.05;;
12224;SDS011;6175;50.956;11.064;2023-08-30T00:55:21;2.30;;;2.15;;
12224;SDS011;6175;50.956;11.064;2023-08-30T00:57:48;2.92;;;2.15;;
12224;SDS011;6175;50.956;11.064;2023-08-30T01:00:16;2.10;;;2.00;;
12224;SDS011;6175;50.956;11.064;2023-08-30T01:02:43;2.63;;;2.00;;
12224;SDS011;6175;50.956;11.064;2023-08-30T01:05:10;2.42;;;2.25;;
12224;SDS011;6175;50.956;11.064;2023-08-30T01:07:37;2.70;;;2.50;;
12224;SDS011;6175;50.956;11.064;2023-08-30T01:10:04;2.80;;;2.60;;
12224;SDS011;6175;50.956;11.064;2023-08-30T01:12:34;2.50;;;2.30;;
12224;SDS011;6175;50.956;11.064;2023-08-30T01:15:08;2.50;;;2.30;;
12224;SDS011;6175;50.956;11.064;2023-08-30T01:17:38;2.67;;;2.28;;
12224;SDS011;6175;50.956;11.064;2023-08-30T01:20:08;2.47;;;1.98;;
12224;SDS011;6175;50.956;11.064;2023-08-30T01:22:40;2.35;;;2.15;;
12224;SDS011;6175;50.956;11.064;2023-08-30T01:25:15;6.72;;;2.97;;
12224;SDS011;6175;50.956;11.064;2023-08-30T01:27:50;2.60;;;2.40;;
12224;SDS011;6175;50.956;11.064;2023-08-30T01:30:18;2.20;;;2.00;;
12224;SDS011;6175;50.956;11.064;2023-08-30T01:32:47;2.17;;;1.98;;
12224;SDS011;6175;50.956;11.064;2023-08-30T01:35:14;3.25;;;2.30;;
12224;SDS011;6175;50.956;11.064;2023-08-30T01:37:44;2.63;;;2.42;;
12224;SDS011;6175;50.956;11.064;2023-08-30T01:40:12;4.32;;;2.63;;
12224;SDS011;6175;50.956;11.064;2023-08-30T01:42:41;2.85;;;2.45;;
12224;SDS011;6175;50.956;11.064;2023-08-30T01:45:11;2.60;;;2.40;;
12224;SDS011;6175;50.956;11.064;2023-08-30T01:47:39;2.60;;;2.22;;
12224;SDS011;6175;50.956;11.064;2023-08-30T01:50:08;3.10;;;2.47;;
12224;SDS011;6175;50.956;11.064;2023-08-30T01:52:36;2.92;;;2.47;;
12224;SDS011;6175;50.956;11.064;2023-08-30T01:55:04;3.50;;;2.63;;
12224;SDS011;6175;50.956;11.064;2023-08-30T01:57:34;2.40;;;2.20;;
12224;SDS011;6175;50.956;11.064;2023-08-30T02:00:01;2.72;;;2.45;;
12224;SDS011;6175;50.956;11.064;2023-08-30T02:02:31;3.50;;;2.67;;
12224;SDS011;6175;50.956;11.064;2023-08-30T02:04:58;3.00;;;2.72;;
12224;SDS011;6175;50.956;11.064;2023-08-30T02:07:28;2.92;;;2.72;;
12224;SDS011;6175;50.956;11.064;2023-08-30T02:09:57;4.50;;;3.10;;
12224;SDS011;6175;50.956;11.064;2023-08-30T02:12:24;3.17;;;2.95;;
12224;SDS011;6175;50.956;11.064;2023-08-30T02:14:57;3.47;;;2.92;;
12224;SDS011;6175;50.956;11.064;2023-08-30T02:17:25;3.13;;;2.83;;
12224;SDS011;6175;50.956;11.064;2023-08-30T02:19:54;2.83;;;2.63;;
12224;SDS011;6175;50.956;11.064;2023-08-30T02:22:21;2.63;;;2.42;;
12224;SDS011;6175;50.956;11.064;2023-08-30T02:24:48;3.45;;;2.70;;
12224;SDS011;6175;50.956;11.064;2023-08-30T02:27:15;3.10;;;2.80;;
12224;SDS011;6175;50.956;11.064;2023-08-30T02:29:43;3.30;;;2.92;;
12224;SDS011;6175;50.956;11.064;2023-08-30T02:32:10;2.72;;;2.53;;
12224;SDS011;6175;50.956;11.064;2023-08-30T02:34:37;2.95;;;2.70;;
12224;SDS011;6175;50.956;11.064;2023-08-30T02:37:06;2.88;;;2.67;;
12224;SDS011;6175;50.956;11.064;2023-08-30T02:39:33;2.90;;;2.70;;
12224;SDS011;6175;50.956;11.064;2023-08-30T02:42:00;3.28;;;2.97;;
12224;SDS011;6175;50.956;11.064;2023-08-30T02:44:27;3.10;;;2.45;;
12224;SDS011;6175;50.956;11.064;2023-08-30T02:46:54;2.83;;;2.50;;
12224;SDS011;6175;50.956;11.064;2023-08-30T02:49:21;2.92;;;2.72;;
12224;SDS011;6175;50.956;11.064;2023-08-30T02:51:49;3.88;;;2.97;;
12224;SDS011;6175;50.956;11.064;2023-08-30T02:54:17;3.00;;;2.72;;
12224;SDS011;6175;50.956;11.064;2023-08-30T02:56:44;3.33;;;3.03;;
12224;SDS011;6175;50.956;11.064;2023-08-30T02:59:12;3.60;;;3.00;;
12224;SDS011;6175;50.956;11.064;2023-08-30T03:01:39;3.15;;;2.95;;
12224;SDS011;6175;50.956;11.064;2023-08-30T03:04:06;3.30;;;2.95;;
12224;SDS011;6175;50.956;11.064;2023-08-30T03:06:34;3.10;;;2.88;;
12224;SDS011;6175;50.956;11.064;2023-08-30T03:09:01;3.22;;;2.92;;
12224;SDS011;6175;50.956;11.064;2023-08-30T03:11:30;2.63;;;2.42;;
12224;SDS011;6175;50.956;11.064;2023-08-30T03:13:58;3.90;;;3.03;;
12224;SDS011;6175;50.956;11.064;2023-08-30T03:16:25;2.85;;;2.65;;
12224;SDS011;6175;50.956;11.064;2023-08-30T03:18:52;3.45;;;3.13;;
12224;SDS011;6175;50.956;11.064;2023-08-30T03:21:20;3.47;;;3.17;;
12224;SDS011;6175;50.956;11.064;2023-08-30T03:23:47;3.90;;;3.50;;
12224;SDS011;6175;50.956;11.064;2023-08-30T03:26:14;3.33;;;3.08;;
12224;SDS011;6175;50.956;11.064;2023-08-30T03:28:43;3.35;;;3.13;;
12224;SDS011;6175;50.956;11.064;2023-08-30T03:31:11;3.58;;;3.28;;
12224;SDS011;6175;50.956;11.064;2023-08-30T03:33:39;3.65;;;3.35;;
12224;SDS011;6175;50.956;11.064;2023-08-30T03:36:07;5.10;;;3.40;;
12224;SDS011;6175;50.956;11.064;2023-08-30T03:38:35;3.50;;;3.10;;
12224;SDS011;6175;50.956;11.064;2023-08-30T03:41:02;3.42;;;3.13;;
12224;SDS011;6175;50.956;11.064;2023-08-30T03:43:30;4.90;;;3.00;;
12224;SDS011;6175;50.956;11.064;2023-08-30T03:46:00;3.10;;;2.80;;
12224;SDS011;6175;50.956;11.064;2023-08-30T03:48:28;2.92;;;2.72;;
12224;SDS011;6175;50.956;11.064;2023-08-30T03:50:55;3.88;;;3.03;;
12224;SDS011;6175;50.956;11.064;2023-08-30T03:53:23;3.33;;;3.03;;
12224;SDS011;6175;50.956;11.064;2023-08-30T03:55:50;4.10;;;3.70;;
12224;SDS011;6175;50.956;11.064;2023-08-30T03:58:17;3.25;;;3.05;;
12224;SDS011;6175;50.956;11.064;2023-08-30T04:00:45;3.45;;;3.15;;
12224;SDS011;6175;50.956;11.064;2023-08-30T04:03:14;4.05;;;3.65;;
12224;SDS011;6175;50.956;11.064;2023-08-30T04:05:41;4.82;;;3.90;;
12224;SDS011;6175;50.956;11.064;2023-08-30T04:08:09;4.35;;;3.80;;
12224;SDS011;6175;50.956;11.064;2023-08-30T04:10:36;4.63;;;3.97;;
12224;SDS011;6175;50.956;11.064;2023-08-30T04:13:04;3.80;;;3.50;;
12224;SDS011;6175;50.956;11.064;2023-08-30T04:15:32;4.22;;;3.80;;
12224;SDS011;6175;50.956;11.064;2023-08-30T04:18:00;3.83;;;3.42;;
12224;SDS011;6175;50.956;11.064;2023-08-30T04:20:29;4.13;;;3.63;;
12224;SDS011;6175;50.956;11.064;2023-08-30T04:22:57;3.75;;;3.42;;
12224;SDS011;6175;50.956;11.064;2023-08-30T04:25:26;3.60;;;3.30;;
12224;SDS011;6175;50.956;11.064;2023-08-30T04:27:53;5.22;;;3.47;;
12224;SDS011;6175;50.956;11.064;2023-08-30T04:30:21;4.10;;;3.70;;
12224;SDS011;6175;50.956;11.064;2023-08-30T04:32:48;3.88;;;3.08;;
12224;SDS011;6175;50.956;11.064;2023-08-30T04:35:16;3.47;;;3.17;;
12224;SDS011;6175;50.956;11.064;2023-08-30T04:37:45;4.60;;;3.95;;
12224;SDS011;6175;50.956;11.064;2023-08-30T04:40:13;3.63;;;3.33;;
12224;SDS011;6175;50.956;11.064;2023-08-30T04:42:40;4.70;;;4.30;;
12224;SDS011;6175;50.956;11.064;2023-08-30T04:45:08;4.15;;;3.75;;
12224;SDS011;6175;50.956;11.064;2023-08-30T04:47:35;4.75;;;3.50;;
12224;SDS011;6175;50.956;11.064;2023-08-30T04:50:03;3.95;;;3.65;;
12224;SDS011;6175;50.956;11.064;2023-08-30T04:52:30;3.70;;;3.40;;
12224;SDS011;6175;50.956;11.064;2023-08-30T04:54:59;3.83;;;3.42;;
12224;SDS011;6175;50.956;11.064;2023-08-30T04:57:26;3.10;;;2.90;;
12224;SDS011;6175;50.956;11.064;2023-08-30T04:59:54;3.95;;;3.40;;
12224;SDS011;6175;50.956;11.064;2023-08-30T05:02:22;3.58;;;3.28;;
12224;SDS011;6175;50.956;11.064;2023-08-30T05:04:49;3.75;;;3.40;;
12224;SDS011;6175;50.956;11.064;2023-08-30T05:07:16;3.58;;;3.28;;
12224;SDS011;6175;50.956;11.064;2023-08-30T05:09:43;3.50;;;3.20;;
12224;SDS011;6175;50.956;11.064;2023-08-30T05:12:12;4.18;;;3.17;;
12224;SDS011;6175;50.956;11.064;2023-08-30T05:14:39;3.80;;;3.50;;
12224;SDS011;6175;50.956;11.064;2023-08-30T05:17:07;4.00;;;3.70;;
12224;SDS011;6175;50.956;11.064;2023-08-30T05:19:34;3.55;;;2.92;;
12224;SDS011;6175;50.956;11.064;2023-08-30T05:22:01;4.35;;;3.25;;
12224;SDS011;6175;50.956;11.064;2023-08-30T05:24:28;3.30;;;3.00;;
12224;SDS011;6175;50.956;11.064;2023-08-30T05:26:56;4.03;;;3.63;;
12224;SDS011;6175;50.956;11.064;2023-08-30T05:29:24;3.08;;;2.88;;
12224;SDS011;6175;50.956;11.064;2023-08-30T05:31:51;2.95;;;2.75;;
12224;SDS011;6175;50.956;11.064;2023-08-30T05:34:19;4.32;;;3.45;;
12224;SDS011;6175;50.956;11.064;2023-08-30T05:36:46;2.70;;;2.50;;
12224;SDS011;6175;50.956;11.064;2023-08-30T05:39:13;3.40;;;3.10;;
12224;SDS011;6175;50.956;11.064;2023-08-30T05:41:40;3.60;;;3.30;;
12224;SDS011;6175;50.956;11.064;2023-08-30T05:44:07;3.30;;;3.00;;
12224;SDS011;6175;50.956;11.064;2023-08-30T05:46:36;5.03;;;2.95;;
12224;SDS011;6175;50.956;11.064;2023-08-30T05:49:03;3.08;;;2.78;;
12224;SDS011;6175;50.956;11.064;2023-08-30T05:51:30;3.92;;;3.15;;
12224;SDS011;6175;50.956;11.064;2023-08-30T05:53:58;3.25;;;2.95;;
12224;SDS011;6175;50.956;11.064;2023-08-30T05:56:25;3.42;;;2.90;;
12224;SDS011;6175;50.956;11.064;2023-08-30T05:58:52;3.58;;;3.25;;
12224;SDS011;6175;50.956;11.064;2023-08-30T06:01:19;4.20;;;3.80;;
12224;SDS011;6175;50.956;11.064;2023-08-30T06:03:47;4.43;;;3.47;;
12224;SDS011;6175;50.956;11.064;2023-08-30T06:06:15;4.00;;;3.70;;
12224;SDS011;6175;50.956;11.064;2023-08-30T06:08:42;3.38;;;3.08;;
12224;SDS011;6175;50.956;11.064;2023-08-30T06:11:09;5.35;;;4.15;;
12224;SDS011;6175;50.956;11.064;2023-08-30T06:13:36;4.10;;;3.80;;
12224;SDS011;6175;50.956;11.064;2023-08-30T06:16:04;5.03;;;4.53;;
12224;SDS011;6175;50.956;11.064;2023-08-30T06:18:31;3.72;;;3.42;;
12224;SDS011;6175;50.956;11.064;2023-08-30T06:21:00;3.40;;;3.10;;
12224;SDS011;6175;50.956;11.064;2023-08-30T06:23:28;4.80;;;3.35;;
12224;SDS011;6175;50.956;11.064;2023-08-30T06:25:55;3.45;;;3.15;;
12224;SDS011;6175;50.956;11.064;2023-08-30T06:28:23;3.33;;;2.95;;
12224;SDS011;6175;50.956;11.064;2023-08-30T06:30:50;2.60;;;2.40;;
12224;SDS011;6175;50.956;11.064;2023-08-30T06:33:17;3.03;;;2.60;;
12224;SDS011;6175;50.956;11.064;2023-08-30T06:35:47;2.60;;;2.40;;
12224;SDS011;6175;50.956;11.064;2023-08-30T06:38:17;2.40;;;1.90;;
12224;SDS011;6175;50.956;11.064;2023-08-30T06:40:44;3.33;;;2.38;;
12224;SDS011;6175;50.956;11.064;2023-08-30T06:43:11;2.50;;;1.90;;
12224;SDS011;6175;50.956;11.064;2023-08-30T06:45:38;2.40;;;1.98;;
12224;SDS011;6175;50.956;11.064;2023-08-30T06:48:06;1.98;;;1.80;;
12224;SDS011;6175;50.956;11.064;2023-08-30T06:50:33;2.17;;;1.70;;
12224;SDS011;6175;50.956;11.064;2023-08-30T06:53:01;2.28;;;1.95;;
12224;SDS011;6175;50.956;11.064;2023-08-30T06:55:30;2.60;;;1.98;;
12224;SDS011;6175;50.956;11.064;2023-08-30T06:57:58;2.00;;;1.90;;
12224;SDS011;6175;50.956;11.064;2023-08-30T07:00:26;2.67;;;2.40;;
12224;SDS011;6175;50.956;11.064;2023-08-30T07:02:53;2.08;;;1.63;;
12224;SDS011;6175;50.956;11.064;2023-08-30T07:05:21;2.25;;;1.90;;
12224;SDS011;6175;50.956;11.064;2023-08-30T07:07:49;2.22;;;1.80;;
12224;SDS011;6175;50.956;11.064;2023-08-30T07:10:16;1.75;;;1.65;;
12224;SDS011;6175;50.956;11.064;2023-08-30T07:12:44;2.30;;;2.10;;
12224;SDS011;6175;50.956;11.064;2023-08-30T07:15:13;2.28;;;1.95;;
12224;SDS011;6175;50.956;11.064;2023-08-30T07:17:42;2.92;;;2.10;;
12224;SDS011;6175;50.956;11.064;2023-08-30T07:20:09;1.75;;;1.65;;
12224;SDS011;6175;50.956;11.064;2023-08-30T07:22:37;1.75;;;1.65;;
12224;SDS011;6175;50.956;11.064;2023-08-30T07:25:04;2.00;;;1.90;;
12224;SDS011;6175;50.956;11.064;2023-08-30T07:27:32;2.33;;;2.13;;
12224;SDS011;6175;50.956;11.064;2023-08-30T07:30:01;2.13;;;1.85;;
12224;SDS011;6175;50.956;11.064;2023-08-30T07:32:29;2.10;;;1.90;;
12224;SDS011;6175;50.956;11.064;2023-08-30T07:34:56;2.45;;;2.08;;
12224;SDS011;6175;50.956;11.064;2023-08-30T07:37:25;2.42;;;2.00;;
12224;SDS011;6175;50.956;11.064;2023-08-30T07:39:52;1.80;;;1.70;;
12224;SDS011;6175;50.956;11.064;2023-08-30T07:42:19;2.63;;;2.10;;
12224;SDS011;6175;50.956;11.064;2023-08-30T07:44:47;2.35;;;1.60;;
12224;SDS011;6175;50.956;11.064;2023-08-30T07:47:15;1.85;;;1.60;;
12224;SDS011;6175;50.956;11.064;2023-08-30T07:49:42;1.88;;;1.70;;
12224;SDS011;6175;50.956;11.064;2023-08-30T07:52:10;1.60;;;1.50;;
12224;SDS011;6175;50.956;11.064;2023-08-30T07:54:38;2.53;;;1.65;;
12224;SDS011;6175;50.956;11.064;2023-08-30T07:57:06;1.55;;;1.45;;
12224;SDS011;6175;50.956;11.064;2023-08-30T07:59:33;2.75;;;1.55;;
12224;SDS011;6175;50.956;11.064;2023-08-30T08:02:01;2.20;;;1.30;;
12224;SDS011;6175;50.956;11.064;2023-08-30T08:04:30;1.63;;;1.50;;
12224;SDS011;6175;50.956;11.064;2023-08-30T08:06:58;1.40;;;1.30;;
12224;SDS011;6175;50.956;11.064;2023-08-30T08:09:25;1.52;;;1.42;;
12224;SDS011;6175;50.956;11.064;2023-08-30T08:11:53;1.58;;;1.42;;
12224;SDS011;6175;50.956;11.064;2023-08-30T08:14:21;2.75;;;1.92;;
12224;SDS011;6175;50.956;11.064;2023-08-30T08:16:48;1.40;;;1.30;;
12224;SDS011;6175;50.956;11.064;2023-08-30T08:19:16;1.90;;;1.40;;
12224;SDS011;6175;50.956;11.064;2023-08-30T08:21:44;2.03;;;1.55;;
12224;SDS011;6175;50.956;11.064;2023-08-30T08:24:11;2.35;;;1.50;;
12224;SDS011;6175;50.956;11.064;2023-08-30T08:26:39;2.35;;;1.58;;
12224;SDS011;6175;50.956;11.064;2023-08-30T08:29:06;2.17;;;1.80;;
12224;SDS011;6175;50.956;11.064;2023-08-30T08:31:34;2.15;;;1.85;;
12224;SDS011;6175;50.956;11.064;2023-08-30T08:34:08;2.55;;;1.60;;
12224;SDS011;6175;50.956;11.064;2023-08-30T08:36:36;2.63;;;2.40;;
12224;SDS011;6175;50.956;11.064;2023-08-30T08:39:05;2.97;;;1.90;;
12224;SDS011;6175;50.956;11.064;2023-08-30T08:41:35;2.15;;;1.95;;
12224;SDS011;6175;50.956;11.064;2023-08-30T08:44:03;2.58;;;2.38;;
12224;SDS011;6175;50.956;11.064;2023-08-30T08:46:32;2.10;;;1.90;;
12224;SDS011;6175;50.956;11.064;2023-08-30T08:49:01;2.20;;;2.00;;
12224;SDS011;6175;50.956;11.064;2023-08-30T08:51:30;2.50;;;2.15;;
12224;SDS011;6175;50.956;11.064;2023-08-30T08:54:01;2.50;;;2.30;;
12224;SDS011;6175;50.956;11.064;2023-08-30T08:56:31;2.72;;;2.22;;
12224;SDS011;6175;50.956;11.064;2023-08-30T08:58:59;2.85;;;2.65;;
12224;SDS011;6175;50.956;11.064;2023-08-30T09:01:26;2.05;;;1.70;;
12224;SDS011;6175;50.956;11.064;2023-08-30T09:03:53;1.80;;;1.70;;
12224;SDS011;6175;50.956;11.064;2023-08-30T09:06:21;2.85;;;1.60;;
12224;SDS011;6175;50.956;11.064;2023-08-30T09:08:48;1.92;;;1.75;;
12224;SDS011;6175;50.956;11.064;2023-08-30T09:11:15;2.90;;;1.92;;
12224;SDS011;6175;50.956;11.064;2023-08-30T09:13:44;2.95;;;2.38;;
12224;SDS011;6175;50.956;11.064;2023-08-30T09:16:11;2.13;;;1.92;;
12224;SDS011;6175;50.956;11.064;2023-08-30T09:18:39;1.60;;;1.50;;
12224;SDS011;6175;50.956;11.064;2023-08-30T09:21:07;3.40;;;2.42;;
12224;SDS011;6175;50.956;11.064;2023-08-30T09:23:34;2.30;;;2.10;;
12224;SDS011;6175;50.956;11.064;2023-08-30T09:26:01;3.13;;;2.47;;
12224;SDS011;6175;50.956;11.064;2023-08-30T09:28:28;3.08;;;2.45;;
12224;SDS011;6175;50.956;11.064;2023-08-30T09:30:58;3.00;;;2.70;;
12224;SDS011;6175;50.956;11.064;2023-08-30T09:33:32;2.72;;;2.50;;
12224;SDS011;6175;50.956;11.064;2023-08-30T09:35:59;3.53;;;2.45;;
12224;SDS011;6175;50.956;11.064;2023-08-30T09:38:27;2.67;;;2.45;;
12224;SDS011;6175;50.956;11.064;2023-08-30T09:41:02;2.42;;;1.90;;
12224;SDS011;6175;50.956;11.064;2023-08-30T09:43:29;1.90;;;1.80;;
12224;SDS011;6175;50.956;11.064;2023-08-30T09:45:58;2.25;;;2.05;;
12224;SDS011;6175;50.956;11.064;2023-08-30T09:48:29;2.08;;;1.75;;
12224;SDS011;6175;50.956;11.064;2023-08-30T09:50:58;2.22;;;1.92;;
12224;SDS011;6175;50.956;11.064;2023-08-30T09:53:26;1.60;;;1.50;;
12224;SDS011;6175;50.956;11.064;2023-08-30T09:55:54;1.90;;;1.58;;
12224;SDS011;6175;50.956;11.064;2023-08-30T09:58:36;2.28;;;1.40;;
12224;SDS011;6175;50.956;11.064;2023-08-30T10:01:06;2.10;;;1.90;;
12224;SDS011;6175;50.956;11.064;2023-08-30T10:03:34;2.03;;;1.65;;
12224;SDS011;6175;50.956;11.064;2023-08-30T10:06:01;2.05;;;1.70;;
12224;SDS011;6175;50.956;11.064;2023-08-30T10:08:30;2.38;;;1.90;;
12224;SDS011;6175;50.956;11.064;2023-08-30T10:11:01;2.50;;;2.30;;
12224;SDS011;6175;50.956;11.064;2023-08-30T10:13:30;2.05;;;1.85;;
12224;SDS011;6175;50.956;11.064;2023-08-30T10:16:00;2.80;;;1.92;;
12224;SDS011;6175;50.956;11.064;2023-08-30T10:18:29;1.70;;;1.60;;
12224;SDS011;6175;50.956;11.064;2023-08-30T10:20:59;2.13;;;1.92;;
12224;SDS011;6175;50.956;11.064;2023-08-30T10:23:33;3.22;;;2.05;;
12224;SDS011;6175;50.956;11.064;2023-08-30T10:26:01;4.55;;;3.13;;
12224;SDS011;6175;50.956;11.064;2023-08-30T10:28:29;4.70;;;2.10;;
12224;SDS011;6175;50.956;11.064;2023-08-30T10:30:56;2.15;;;1.60;;
12224;SDS011;6175;50.956;11.064;2023-08-30T10:33:24;2.08;;;1.98;;
12224;SDS011;6175;50.956;11.064;2023-08-30T10:35:53;1.70;;;1.60;;
12224;SDS011;6175;50.956;11.064;2023-08-30T10:38:27;2.03;;;1.80;;
12224;SDS011;6175;50.956;11.064;2023-08-30T10:40:55;1.75;;;1.65;;
12224;SDS011;6175;50.956;11.064;2023-08-30T10:43:28;3.42;;;1.60;;
12224;SDS011;6175;50.956;11.064;2023-08-30T10:45:59;1.80;;;1.70;;
12224;SDS011;6175;50.956;11.064;2023-08-30T10:48:37;1.80;;;1.70;;
12224;SDS011;6175;50.956;11.064;2023-08-30T10:51:06;1.65;;;1.55;;
12224;SDS011;6175;50.956;11.064;2023-08-30T10:53:43;1.50;;;1.40;;
12224;SDS011;6175;50.956;11.064;2023-08-30T10:56:09;1.75;;;1.33;;
12224;SDS011;6175;50.956;11.064;2023-08-30T10:58:43;3.28;;;1.80;;
12224;SDS011;6175;50.956;11.064;2023-08-30T11:01:10;1.83;;;1.73;;
12224;SDS011;6175;50.956;11.064;2023-08-30T11:03:39;1.52;;;1.42;;
12224;SDS011;6175;50.956;11.064;2023-08-30T11:06:08;2.92;;;1.80;;
12224;SDS011;6175;50.956;11.064;2023-08-30T11:08:40;2.45;;;1.98;;
12224;SDS011;6175;50.956;11.064;2023-08-30T11:11:08;1.75;;;1.63;;
12224;SDS011;6175;50.956;11.064;2023-08-30T11:13:36;1.98;;;1.55;;
12224;SDS011;6175;50.956;11.064;2023-08-30T11:16:03;2.30;;;2.10;;
12224;SDS011;6175;50.956;11.064;2023-08-30T11:18:30;2.10;;;1.63;;
12224;SDS011;6175;50.956;11.064;2023-08-30T11:20:58;1.65;;;1.55;;
12224;SDS011;6175;50.956;11.064;2023-08-30T11:23:27;1.98;;;1.50;;
12224;SDS011;6175;50.956;11.064;2023-08-30T11:25:55;3.05;;;2.75;;
12224;SDS011;6175;50.956;11.064;2023-08-30T11:28:22;1.75;;;1.63;;
12224;SDS011;6175;50.956;11.064;2023-08-30T11:30:49;2.97;;;2.10;;
12224;SDS011;6175;50.956;11.064;2023-08-30T11:33:17;1.92;;;1.75;;
12224;SDS011;6175;50.956;11.064;2023-08-30T11:35:45;2.72;;;2.03;;
12224;SDS011;6175;50.956;11.064;2023-08-30T11:38:13;2.38;;;2.00;;
12224;SDS011;6175;50.956;11.064;2023-08-30T11:40:42;2.13;;;1.90;;
12224;SDS011;6175;50.956;11.064;2023-08-30T11:43:09;2.10;;;1.90;;
12224;SDS011;6175;50.956;11.064;2023-08-30T11:45:37;1.65;;;1.52;;
12224;SDS011;6175;50.956;11.064;2023-08-30T11:48:04;2.38;;;2.17;;
12224;SDS011;6175;50.956;11.064;2023-08-30T11:50:32;1.73;;;1.63;;
12224;SDS011;6175;50.956;11.064;2023-08-30T11:53:00;1.77;;;1.67;;
12224;SDS011;6175;50.956;11.064;2023-08-30T11:55:27;1.58;;;1.48;;
12224;SDS011;6175;50.956;11.064;2023-08-30T11:57:56;2.15;;;1.52;;
12224;SDS011;6175;50.956;11.064;2023-08-30T12:00:24;1.95;;;1.52;;
12224;SDS011;6175;50.956;11.064;2023-08-30T12:02:51;1.70;;;1.60;;
12224;SDS011;6175;50.956;11.064;2023-08-30T12:05:18;2.67;;;1.80;;
12224;SDS011;6175;50.956;11.064;2023-08-30T12:07:46;1.80;;;1.70;;
12224;SDS011;6175;50.956;11.064;2023-08-30T12:10:13;1.67;;;1.58;;
12224;SDS011;6175;50.956;11.064;2023-08-30T12:12:45;1.70;;;1.60;;
12224;SDS011;6175;50.956;11.064;2023-08-30T12:15:14;2.05;;;1.90;;
12224;SDS011;6175;50.956;11.064;2023-08-30T12:17:42;2.38;;;1.88;;
12224;SDS011;6175;50.956;11.064;2023-08-30T12:20:15;2.75;;;1.70;;
12224;SDS011;6175;50.956;11.064;2023-08-30T12:22:45;1.92;;;1.73;;
12224;SDS011;6175;50.956;11.064;2023-08-30T12:25:16;1.70;;;1.55;;
12224;SDS011;6175;50.956;11.064;2023-08-30T12:27:43;2.22;;;1.75;;
12224;SDS011;6175;50.956;11.064;2023-08-30T12:30:11;2.58;;;1.98;;
12224;SDS011;6175;50.956;11.064;2023-08-30T12:32:40;3.20;;;2.15;;
12224;SDS011;6175;50.956;11.064;2023-08-30T12:35:07;1.60;;;1.50;;
12224;SDS011;6175;50.956;11.064;2023-08-30T12:37:35;1.88;;;1.77;;
12224;SDS011;6175;50.956;11.064;2023-08-30T12:40:02;2.03;;;1.83;;
12224;SDS011;6175;50.956;11.064;2023-08-30T12:42:29;1.90;;;1.70;;
12224;SDS011;6175;50.956;11.064;2023-08-30T12:44:57;1.88;;;1.77;;
12224;SDS011;6175;50.956;11.064;2023-08-30T12:47:24;3.10;;;2.28;;
12224;SDS011;6175;50.956;11.064;2023-08-30T12:49:53;3.50;;;2.47;;
12224;SDS011;6175;50.956;11.064;2023-08-30T12:52:20;3.15;;;2.85;;
12224;SDS011;6175;50.956;11.064;2023-08-30T12:54:47;3.05;;;2.70;;
12224;SDS011;6175;50.956;11.064;2023-08-30T12:57:15;2.67;;;2.47;;
12224;SDS011;6175;50.956;11.064;2023-08-30T12:59:42;3.40;;;3.10;;
12224;SDS011;6175;50.956;11.064;2023-08-30T13:02:09;4.00;;;3.30;;
12224;SDS011;6175;50.956;11.064;2023-08-30T13:04:36;3.20;;;3.00;;
12224;SDS011;6175;50.956;11.064;2023-08-30T13:07:05;2.72;;;2.53;;
12224;SDS011;6175;50.956;11.064;2023-08-30T13:09:33;2.92;;;2.72;;
12224;SDS011;6175;50.956;11.064;2023-08-30T13:12:00;5.18;;;4.68;;
12224;SDS011;6175;50.956;11.064;2023-08-30T13:14:27;3.15;;;2.95;;
12224;SDS011;6175;50.956;11.064;2023-08-30T13:16:54;3.28;;;3.08;;
12224;SDS011;6175;50.956;11.064;2023-08-30T13:19:21;3.05;;;2.85;;
12224;SDS011;6175;50.956;11.064;2023-08-30T13:21:48;3.10;;;2.80;;
12224;SDS011;6175;50.956;11.064;2023-08-30T13:24:17;3.40;;;2.80;;
12224;SDS011;6175;50.956;11.064;2023-08-30T13:26:44;3.60;;;2.92;;
12224;SDS011;6175;50.956;11.064;2023-08-30T13:29:12;2.97;;;2.78;;
12224;SDS011;6175;50.956;11.064;2023-08-30T13:31:40;2.80;;;2.60;;
12224;SDS011;6175;50.956;11.064;2023-08-30T13:34:07;3.35;;;3.05;;
12224;SDS011;6175;50.956;11.064;2023-08-30T13:36:34;2.83;;;2.60;;
12224;SDS011;6175;50.956;11.064;2023-08-30T13:39:01;3.20;;;3.00;;
12224;SDS011;6175;50.956;11.064;2023-08-30T13:41:30;3.30;;;3.00;;
12224;SDS011;6175;50.956;11.064;2023-08-30T13:43:57;3.75;;;2.92;;
12224;SDS011;6175;50.956;11.064;2023-08-30T13:46:24;3.03;;;2.83;;
12224;SDS011;6175;50.956;11.064;2023-08-30T13:48:51;3.30;;;3.00;;
12224;SDS011;6175;50.956;11.064;2023-08-30T13:51:20;3.25;;;3.00;;
12224;SDS011;6175;50.956;11.064;2023-08-30T13:53:48;2.97;;;2.72;;
12224;SDS011;6175;50.956;11.064;2023-08-30T13:56:15;2.17;;;2.08;;
12224;SDS011;6175;50.956;11.064;2023-08-30T13:58:44;3.35;;;2.75;;
12224;SDS011;6175;50.956;11.064;2023-08-30T14:01:11;2.88;;;2.67;;
12224;SDS011;6175;50.956;11.064;2023-08-30T14:03:38;3.15;;;2.70;;
12224;SDS011;6175;50.956;11.064;2023-08-30T14:06:05;2.95;;;2.42;;
12224;SDS011;6175;50.956;11.064;2023-08-30T14:08:32;3.17;;;2.60;;
12224;SDS011;6175;50.956;11.064;2023-08-30T14:11:00;3.17;;;2.70;;
12224;SDS011;6175;50.956;11.064;2023-08-30T14:13:28;2.40;;;2.20;;
12224;SDS011;6175;50.956;11.064;2023-08-30T14:15:59;2.67;;;2.47;;
12224;SDS011;6175;50.956;11.064;2023-08-30T14:18:26;3.00;;;2.60;;
12224;SDS011;6175;50.956;11.064;2023-08-30T14:20:55;2.65;;;2.45;;
12224;SDS011;6175;50.956;11.064;2023-08-30T14:23:23;3.10;;;2.80;;
12224;SDS011;6175;50.956;11.064;2023-08-30T14:25:55;2.38;;;2.10;;
12224;SDS011;6175;50.956;11.064;2023-08-30T14:28:23;3.38;;;2.70;;
12224;SDS011;6175;50.956;11.064;2023-08-30T14:30:50;2.80;;;2.60;;
12224;SDS011;6175;50.956;11.064;2023-08-30T14:33:19;2.47;;;2.28;;
12224;SDS011;6175;50.956;11.064;2023-08-30T14:35:46;2.58;;;2.38;;
12224;SDS011;6175;50.956;11.064;2023-08-30T14:38:13;2.47;;;2.30;;
12224;SDS011;6175;50.956;11.064;2023-08-30T14:40:40;2.97;;;2.40;;
12224;SDS011;6175;50.956;11.064;2023-08-30T14:43:07;2.97;;;2.65;;
12224;SDS011;6175;50.956;11.064;2023-08-30T14:45:35;2.28;;;2.17;;
12224;SDS011;6175;50.956;11.064;2023-08-30T14:48:02;2.75;;;2.28;;
12224;SDS011;6175;50.956;11.064;2023-08-30T14:50:31;3.15;;;2.63;;
12224;SDS011;6175;50.956;11.064;2023-08-30T14:52:57;2.75;;;2.08;;